EBBR METAR and TAF | Updated Today

EBBR METAR

Brussels Airport

Observation time: 17 min. ago

EBBR 080550Z 20013KT 9999 FEW021 05/01 Q0994 NOSIG

Need help? Read our tutorial on how to read METARs or read the parsed version below.

Brussels Airport (EBBR) METAR

  • Weather conditions on Wed, 08 Dec 2021 05:50:00 +0000 (17 min. ago):
  • Present conditions: Dry
  • Clouds: A few at 640 meters
  • Visibility: Greater than 10 km
  • Wind: 200 degrees at 13 knots
  • Temperature: 5 celsius
  • Dew point: 1 celsius
  • Pressure: 994 millibars
  • Remarks: None


Useful to know...

EBBR TAF

Brussels Airport

TAF EBBR 080530Z 0806/0912 20013KT 9999 SCT025 SCT035 TEMPO 0906/0912 4000 RA SCT007 BKN010
Observation time: 37 min. ago
Need help? Read our tutorial on how to read TAFs or read the parsed version below.

Parsed version of TAF for Brussels Airport (EBBR)

  • From 08 December at 06:00 UTC, to day 09 of the month at 12:00 UTC
  • Clouds: Scattered at 762 meters; scattered at 1067 meters
  • Visibility: Greater than 10 km
  • Wind: 200 degrees at 13
  • Expected to arise temporarily, from 09 December at 06:00 UTC, to day 09 of the month at 12:00 UTC
  • Clouds: Scattered at 213 meters; broken sky at 305 meters
  • Visibility: 4000 meters
  • Other: Rain